createdAt,value
2022-08-25T00:01:14.753Z,20.99
2022-08-25T00:03:48.205Z,20.81
2022-08-25T00:06:23.580Z,20.83
2022-08-25T00:08:59.839Z,20.84
2022-08-25T00:11:35.504Z,20.97
2022-08-25T00:14:10.793Z,21.15
2022-08-25T00:16:43.869Z,21.17
2022-08-25T00:19:18.398Z,21.09
2022-08-25T00:21:53.020Z,21.16
2022-08-25T00:24:25.062Z,21.18
2022-08-25T00:27:01.934Z,20.96
2022-08-25T00:29:34.130Z,20.93
2022-08-25T00:32:05.631Z,20.92
2022-08-25T00:34:39.706Z,20.74
2022-08-25T00:37:13.849Z,20.66
2022-08-25T00:39:45.735Z,20.69
2022-08-25T00:42:21.022Z,20.80
2022-08-25T00:44:54.212Z,20.50
2022-08-25T00:47:25.668Z,20.67
2022-08-25T00:50:01.842Z,20.73
2022-08-25T00:52:41.326Z,20.67
2022-08-25T00:55:20.028Z,20.78
2022-08-25T00:57:58.905Z,20.54
2022-08-25T01:00:35.389Z,20.48
2022-08-25T01:03:06.727Z,20.66
2022-08-25T01:05:39.794Z,20.51
2022-08-25T01:08:16.383Z,20.44
2022-08-25T01:10:49.476Z,20.28
2022-08-25T01:13:25.983Z,20.40
2022-08-25T01:15:59.611Z,20.28
2022-08-25T01:18:31.977Z,20.34
2022-08-25T01:21:07.235Z,20.43
2022-08-25T01:23:38.958Z,20.26
2022-08-25T01:26:14.093Z,20.20
2022-08-25T01:28:59.461Z,20.37
2022-08-25T01:31:31.689Z,20.34
2022-08-25T01:34:03.134Z,19.94
2022-08-25T01:36:39.149Z,20.07
2022-08-25T01:39:10.728Z,20.42
2022-08-25T01:41:57.108Z,20.14
2022-08-25T01:44:29.134Z,20.12
2022-08-25T01:47:01.104Z,20.02
2022-08-25T01:49:33.208Z,20.27
2022-08-25T01:52:13.764Z,20.32
2022-08-25T01:54:45.686Z,20.40
2022-08-25T01:57:18.937Z,20.43
2022-08-25T01:59:50.642Z,20.18
2022-08-25T02:02:22.664Z,20.13
2022-08-25T02:04:58.006Z,20.13
2022-08-25T02:07:32.790Z,20.11
2022-08-25T02:10:04.582Z,20.32
2022-08-25T02:12:37.823Z,20.20
2022-08-25T02:15:11.966Z,20.18
2022-08-25T02:17:44.117Z,20.29
2022-08-25T02:20:15.918Z,20.22
2022-08-25T02:22:56.489Z,19.81
2022-08-25T02:25:28.536Z,20.08
2022-08-25T02:28:00.500Z,19.79
2022-08-25T02:30:33.004Z,19.74
2022-08-25T02:33:05.298Z,19.70
2022-08-25T02:35:37.239Z,19.84
2022-08-25T02:38:13.807Z,20.06
2022-08-25T02:40:45.394Z,19.92
2022-08-25T02:43:17.505Z,20.03
2022-08-25T02:45:49.122Z,20.06
2022-08-25T02:48:22.033Z,19.97
2022-08-25T02:50:56.337Z,20.01
2022-08-25T02:53:32.786Z,19.90
2022-08-25T02:56:05.199Z,19.98
2022-08-25T02:58:37.478Z,20.01
2022-08-25T03:01:12.460Z,19.97
2022-08-25T03:03:45.811Z,19.88
2022-08-25T03:06:23.418Z,19.92
2022-08-25T03:08:59.326Z,19.88
2022-08-25T03:11:31.649Z,19.86
2022-08-25T03:14:04.027Z,19.88
2022-08-25T03:16:36.550Z,19.86
2022-08-25T03:19:09.527Z,19.60
2022-08-25T03:21:42.138Z,19.68
2022-08-25T03:24:17.437Z,19.60
2022-08-25T03:26:56.242Z,19.61
2022-08-25T03:29:30.957Z,19.59
2022-08-25T03:32:03.982Z,19.69
2022-08-25T03:34:36.402Z,19.71
2022-08-25T03:37:08.710Z,19.56
2022-08-25T03:39:43.467Z,19.61
2022-08-25T03:42:15.745Z,19.65
2022-08-25T03:44:47.859Z,19.67
2022-08-25T03:47:19.804Z,19.61
2022-08-25T03:49:51.941Z,19.44
2022-08-25T03:52:23.738Z,19.50
2022-08-25T03:54:58.816Z,19.41
2022-08-25T03:57:31.114Z,19.38
2022-08-25T04:00:03.366Z,19.50
2022-08-25T04:02:35.435Z,18.91
2022-08-25T04:05:08.445Z,18.93
2022-08-25T04:07:41.074Z,19.17
2022-08-25T04:10:16.275Z,19.08
2022-08-25T04:12:49.675Z,19.06
2022-08-25T04:15:22.123Z,19.35
2022-08-25T04:17:54.184Z,19.51
2022-08-25T04:20:26.498Z,19.61
2022-08-25T04:23:00.895Z,19.34
2022-08-25T04:25:36.076Z,19.22
2022-08-25T04:28:07.842Z,19.38
2022-08-25T04:30:51.412Z,19.45
2022-08-25T04:33:23.871Z,19.57
2022-08-25T04:35:56.099Z,19.44
2022-08-25T04:38:30.239Z,19.53
2022-08-25T04:41:07.358Z,19.47
2022-08-25T04:43:43.756Z,19.06
2022-08-25T04:46:20.483Z,19.48
2022-08-25T04:48:58.959Z,19.44
2022-08-25T04:51:34.205Z,19.43
2022-08-25T04:54:08.640Z,19.78
2022-08-25T04:56:46.983Z,19.85
2022-08-25T04:59:21.290Z,19.86
2022-08-25T05:01:54.570Z,19.92
2022-08-25T05:04:28.067Z,19.78
2022-08-25T05:07:02.335Z,19.65
2022-08-25T05:09:34.710Z,19.79
2022-08-25T05:12:10.361Z,19.91
2022-08-25T05:14:43.934Z,19.77
2022-08-25T05:17:16.101Z,20.12
2022-08-25T05:19:48.032Z,20.14
2022-08-25T05:22:22.346Z,19.93
2022-08-25T05:24:54.306Z,19.88
2022-08-25T05:27:28.567Z,19.55
2022-08-25T05:30:01.182Z,19.99
2022-08-25T05:32:33.097Z,20.07
2022-08-25T05:35:09.048Z,20.21
2022-08-25T05:37:41.139Z,20.31
2022-08-25T05:40:13.822Z,20.34
2022-08-25T05:42:48.847Z,20.53
2022-08-25T05:45:21.152Z,20.49
2022-08-25T05:47:55.578Z,20.59
2022-08-25T05:50:28.855Z,20.56
2022-08-25T05:53:00.969Z,20.39
2022-08-25T05:55:32.757Z,20.42
2022-08-25T05:58:07.780Z,20.38
2022-08-25T06:00:48.095Z,20.03
2022-08-25T06:03:17.663Z,20.48
2022-08-25T06:05:49.445Z,20.54
2022-08-25T06:08:21.787Z,20.77
2022-08-25T06:10:58.011Z,20.81
2022-08-25T06:13:32.839Z,20.56
2022-08-25T06:16:09.474Z,20.53
2022-08-25T06:18:41.759Z,20.69
2022-08-25T06:21:19.156Z,20.43
2022-08-25T06:23:51.648Z,20.78
2022-08-25T06:26:24.668Z,20.68
2022-08-25T06:28:59.412Z,20.77
2022-08-25T06:31:31.337Z,20.91
2022-08-25T06:34:04.205Z,20.89
2022-08-25T06:36:36.190Z,20.79
2022-08-25T06:39:08.022Z,20.89
2022-08-25T06:41:42.538Z,20.97
2022-08-25T06:44:20.138Z,20.96
2022-08-25T06:46:54.949Z,20.98
2022-08-25T06:49:35.516Z,20.81
2022-08-25T06:52:08.001Z,20.92
2022-08-25T06:54:40.342Z,21.08
2022-08-25T06:57:12.788Z,20.95
2022-08-25T06:59:48.685Z,21.03
2022-08-25T07:02:24.879Z,20.88
2022-08-25T07:04:56.645Z,21.17
2022-08-25T07:07:42.943Z,21.26
2022-08-25T07:10:19.497Z,21.20
2022-08-25T07:12:52.279Z,21.30
2022-08-25T07:15:26.868Z,21.40
2022-08-25T07:17:57.986Z,21.35
2022-08-25T07:20:29.864Z,21.39
2022-08-25T07:23:02.142Z,21.54
2022-08-25T07:25:34.271Z,21.28
2022-08-25T07:28:06.851Z,21.90
2022-08-25T07:30:51.882Z,21.94
2022-08-25T07:33:24.488Z,22.23
2022-08-25T07:35:53.551Z,22.47
2022-08-25T07:38:24.940Z,22.62
2022-08-25T07:41:03.938Z,22.62
2022-08-25T07:43:35.514Z,22.77
2022-08-25T07:46:12.523Z,22.67
2022-08-25T07:48:44.358Z,23.05
2022-08-25T07:51:24.867Z,23.18
2022-08-25T07:53:59.560Z,23.28
2022-08-25T07:56:33.930Z,23.32
2022-08-25T07:59:08.280Z,23.35
2022-08-25T08:01:50.129Z,22.95
2022-08-25T08:04:24.244Z,23.40
2022-08-25T08:06:55.667Z,23.00
2022-08-25T08:09:27.355Z,23.28
2022-08-25T08:11:58.651Z,23.26
2022-08-25T08:14:30.541Z,23.35
2022-08-25T08:17:12.192Z,23.92
2022-08-25T08:19:45.468Z,24.22
2022-08-25T08:22:18.341Z,25.36
2022-08-25T08:24:56.181Z,25.98
2022-08-25T08:27:27.850Z,25.39
2022-08-25T08:30:02.196Z,25.54
2022-08-25T08:33:05.872Z,24.59
2022-08-25T08:35:29.492Z,25.06
2022-08-25T08:38:01.293Z,24.83
2022-08-25T08:40:41.776Z,24.92
2022-08-25T08:43:20.078Z,24.65
2022-08-25T08:45:59.620Z,24.28
2022-08-25T08:48:59.188Z,25.01
2022-08-25T08:54:43.011Z,25.97
2022-08-25T08:57:19.474Z,25.84
2022-08-25T08:59:57.672Z,25.99
2022-08-25T09:02:50.584Z,25.60
2022-08-25T09:05:34.427Z,25.48
2022-08-25T09:08:15.012Z,26.03
2022-08-25T09:11:04.992Z,26.17
2022-08-25T09:14:11.190Z,26.59
2022-08-25T09:16:59.820Z,26.51
2022-08-25T09:19:47.653Z,27.29
2022-08-25T09:22:36.785Z,28.03
2022-08-25T09:25:21.944Z,27.91
2022-08-25T09:28:10.183Z,28.51
2022-08-25T09:30:50.044Z,28.36
2022-08-25T09:33:30.029Z,27.71
2022-08-25T09:36:09.036Z,27.14
2022-08-25T09:38:44.834Z,26.92
2022-08-25T09:41:20.749Z,26.29
2022-08-25T09:43:57.576Z,25.91
2022-08-25T09:46:32.986Z,26.57
2022-08-25T09:49:18.977Z,26.94
2022-08-25T09:51:52.757Z,27.08
2022-08-25T09:54:44.173Z,27.16
2022-08-25T09:57:34.299Z,27.36
2022-08-25T10:00:23.337Z,27.10
2022-08-25T10:03:11.059Z,27.09
2022-08-25T10:06:05.663Z,27.26
2022-08-25T10:08:42.503Z,27.38
2022-08-25T10:11:32.237Z,27.53
2022-08-25T10:14:08.173Z,27.58
2022-08-25T10:16:39.861Z,26.93
2022-08-25T10:19:14.304Z,26.78
2022-08-25T10:21:48.608Z,27.34
2022-08-25T10:24:23.675Z,27.39
2022-08-25T10:27:04.798Z,27.27
2022-08-25T10:29:55.754Z,26.61
2022-08-25T10:32:41.115Z,27.04
2022-08-25T10:35:17.849Z,28.03
2022-08-25T10:38:21.634Z,27.86
2022-08-25T10:41:00.675Z,27.80
2022-08-25T10:43:40.655Z,28.39
2022-08-25T10:46:21.685Z,28.19
2022-08-25T10:49:08.335Z,28.05
2022-08-25T10:51:51.246Z,28.14
2022-08-25T10:54:35.297Z,28.09
2022-08-25T10:57:20.858Z,28.10
2022-08-25T11:00:05.936Z,28.94
2022-08-25T11:03:21.384Z,28.92
2022-08-25T11:06:03.965Z,27.24
2022-08-25T11:08:43.116Z,27.50
2022-08-25T11:11:24.725Z,28.11
2022-08-25T11:14:05.700Z,28.05
2022-08-25T11:16:48.586Z,28.37
2022-08-25T11:19:27.236Z,28.55
2022-08-25T11:22:08.255Z,28.88
2022-08-25T11:24:51.577Z,29.07
2022-08-25T11:27:26.757Z,29.25
2022-08-25T11:30:07.461Z,29.00
2022-08-25T11:33:10.776Z,28.67
2022-08-25T11:35:52.597Z,28.67
2022-08-25T11:38:47.971Z,28.46
2022-08-25T11:41:30.798Z,28.72
2022-08-25T11:44:20.395Z,28.24
2022-08-25T11:47:21.422Z,28.47
2022-08-25T11:49:57.421Z,28.74
2022-08-25T11:52:54.526Z,28.79
2022-08-25T11:55:35.442Z,28.68
2022-08-25T11:58:40.727Z,28.93
2022-08-25T12:01:35.816Z,29.33
2022-08-25T12:04:16.509Z,29.40
2022-08-25T12:07:18.260Z,29.13
2022-08-25T12:10:18.952Z,28.98
2022-08-25T12:13:29.521Z,28.89
2022-08-25T12:16:05.300Z,29.02
2022-08-25T12:18:46.698Z,28.70
2022-08-25T12:21:36.187Z,28.40
2022-08-25T12:24:17.771Z,28.27
2022-08-25T12:27:00.897Z,28.51
2022-08-25T12:29:48.359Z,28.20
2022-08-25T12:32:53.365Z,28.26
2022-08-25T12:35:33.610Z,28.30
2022-08-25T12:38:10.705Z,28.52
2022-08-25T12:41:03.084Z,28.18
2022-08-25T12:43:42.253Z,28.21
2022-08-25T12:46:37.570Z,28.64
2022-08-25T12:49:31.302Z,28.46
2022-08-25T12:52:09.781Z,28.76
2022-08-25T12:54:52.644Z,29.04
2022-08-25T12:57:41.001Z,29.28
2022-08-25T13:03:46.406Z,28.79
2022-08-25T13:06:58.603Z,28.70
2022-08-25T13:10:20.809Z,28.86
2022-08-25T13:13:01.695Z,28.53
2022-08-25T13:15:47.156Z,28.54
2022-08-25T13:18:29.103Z,28.42
2022-08-25T13:21:11.437Z,28.54
2022-08-25T13:23:48.244Z,28.78
2022-08-25T13:26:26.290Z,28.71
2022-08-25T13:29:01.237Z,28.24
2022-08-25T13:31:42.035Z,28.49
2022-08-25T13:34:22.509Z,28.70
2022-08-25T13:37:20.556Z,28.69
2022-08-25T13:40:11.054Z,28.89
2022-08-25T13:42:44.278Z,28.61
2022-08-25T13:45:22.553Z,28.54
2022-08-25T13:47:59.420Z,28.29
2022-08-25T13:50:37.900Z,28.13
2022-08-25T13:53:16.181Z,27.81
2022-08-25T13:55:56.998Z,28.01
2022-08-25T13:58:39.133Z,28.23
2022-08-25T14:01:47.756Z,28.33
2022-08-25T14:04:32.810Z,28.42
2022-08-25T14:07:34.235Z,28.44
2022-08-25T14:10:09.372Z,28.88
2022-08-25T14:12:45.166Z,28.59
2022-08-25T14:15:34.651Z,28.79
2022-08-25T14:18:14.019Z,28.52
2022-08-25T14:20:55.427Z,28.04
2022-08-25T14:23:29.416Z,28.34
2022-08-25T14:26:02.157Z,28.14
2022-08-25T14:28:35.878Z,27.98
2022-08-25T14:31:11.798Z,28.24
2022-08-25T14:33:50.790Z,28.06
2022-08-25T14:39:41.685Z,28.14
2022-08-25T14:42:17.013Z,28.21
2022-08-25T14:44:56.186Z,28.33
2022-08-25T14:47:28.497Z,28.13
2022-08-25T14:49:59.972Z,27.69
2022-08-25T14:52:33.067Z,28.18
2022-08-25T14:55:09.155Z,27.88
2022-08-25T14:57:41.505Z,27.94
2022-08-25T15:00:14.193Z,28.33
2022-08-25T15:02:53.544Z,28.19
2022-08-25T15:05:30.133Z,28.43
2022-08-25T15:08:14.952Z,28.38
2022-08-25T15:10:50.496Z,28.38
2022-08-25T15:13:24.519Z,28.08
2022-08-25T15:15:58.045Z,27.89
2022-08-25T15:18:47.197Z,28.05
2022-08-25T15:21:19.245Z,28.15
2022-08-25T15:23:56.224Z,28.03
2022-08-25T15:26:32.263Z,28.17
2022-08-25T15:29:05.067Z,28.06
2022-08-25T15:31:37.293Z,28.06
2022-08-25T15:34:11.707Z,28.14
2022-08-25T15:36:45.215Z,28.36
2022-08-25T15:39:19.248Z,28.02
2022-08-25T15:42:10.339Z,27.94
2022-08-25T15:44:53.072Z,28.13
2022-08-25T15:47:28.052Z,28.11
2022-08-25T15:50:12.869Z,28.01
2022-08-25T15:52:47.516Z,28.09
2022-08-25T15:55:25.261Z,28.17
2022-08-25T15:58:00.372Z,28.11
2022-08-25T16:00:32.748Z,28.13
2022-08-25T16:03:05.005Z,28.00
2022-08-25T16:05:39.935Z,28.03
2022-08-25T16:08:19.994Z,28.09
2022-08-25T16:10:52.309Z,28.14
2022-08-25T16:13:26.789Z,28.16
2022-08-25T16:15:59.057Z,28.08
2022-08-25T16:18:31.468Z,28.16
2022-08-25T16:21:03.897Z,27.99
2022-08-25T16:23:53.689Z,27.89
2022-08-25T16:26:26.808Z,28.00
2022-08-25T16:29:01.427Z,27.93
2022-08-25T16:31:39.102Z,27.85
2022-08-25T16:34:10.771Z,27.72
2022-08-25T16:36:43.511Z,28.08
2022-08-25T16:39:15.262Z,27.90
2022-08-25T16:41:47.613Z,27.90
2022-08-25T16:44:23.334Z,27.88
2022-08-25T16:46:58.088Z,27.84
2022-08-25T16:49:31.533Z,27.99
2022-08-25T16:52:23.772Z,28.05
2022-08-25T16:55:22.093Z,28.01
2022-08-25T16:57:58.999Z,27.91
2022-08-25T17:00:34.666Z,27.93
2022-08-25T17:03:08.484Z,27.76
2022-08-25T17:05:45.684Z,27.84
2022-08-25T17:08:36.243Z,27.70
2022-08-25T17:11:11.429Z,27.41
2022-08-25T17:13:50.136Z,27.62
2022-08-25T17:16:28.195Z,27.43
2022-08-25T17:19:01.892Z,27.27
2022-08-25T17:21:41.295Z,27.29
2022-08-25T17:24:22.577Z,27.24
2022-08-25T17:27:09.781Z,27.19
2022-08-25T17:29:46.599Z,27.30
2022-08-25T17:32:32.895Z,27.30
2022-08-25T17:35:10.701Z,27.11
2022-08-25T17:37:49.967Z,27.22
2022-08-25T17:40:23.501Z,27.09
2022-08-25T17:42:58.479Z,27.04
2022-08-25T17:45:31.438Z,27.02
2022-08-25T17:48:07.510Z,27.00
2022-08-25T17:50:42.238Z,26.93
2022-08-25T17:53:39.199Z,26.92
2022-08-25T17:56:24.043Z,26.92
2022-08-25T17:58:57.299Z,27.14
2022-08-25T18:01:33.451Z,27.16
2022-08-25T18:04:17.680Z,27.03
2022-08-25T18:06:52.215Z,26.97
2022-08-25T18:09:24.380Z,26.82
2022-08-25T18:11:57.798Z,26.90
2022-08-25T18:14:30.199Z,26.71
2022-08-25T18:17:04.121Z,26.73
2022-08-25T18:19:47.299Z,26.86
2022-08-25T18:22:20.239Z,26.97
2022-08-25T18:24:55.741Z,26.58
2022-08-25T18:27:28.859Z,26.37
2022-08-25T18:30:01.807Z,26.44
2022-08-25T18:32:34.360Z,26.25
2022-08-25T18:35:11.719Z,26.65
2022-08-25T18:37:56.420Z,26.59
2022-08-25T18:40:28.417Z,26.47
2022-08-25T18:43:03.618Z,26.57
2022-08-25T18:45:44.538Z,26.66
2022-08-25T18:48:26.511Z,26.44
2022-08-25T18:51:02.720Z,26.31
2022-08-25T18:53:49.715Z,26.29
2022-08-25T18:56:28.501Z,26.33
2022-08-25T18:59:01.603Z,26.28
2022-08-25T19:01:37.581Z,26.49
2022-08-25T19:04:10.441Z,26.53
2022-08-25T19:06:45.438Z,26.52
2022-08-25T19:09:19.321Z,26.35
2022-08-25T19:11:53.004Z,26.14
2022-08-25T19:14:27.877Z,26.02
2022-08-25T19:17:01.122Z,25.85
2022-08-25T19:19:33.778Z,26.16
2022-08-25T19:22:38.093Z,26.07
2022-08-25T19:25:02.658Z,26.18
2022-08-25T19:27:35.318Z,26.23
2022-08-25T19:30:10.903Z,26.23
2022-08-25T19:32:45.179Z,26.15
2022-08-25T19:35:29.120Z,26.00
2022-08-25T19:38:33.681Z,25.99
2022-08-25T19:41:00.258Z,25.90
2022-08-25T19:43:50.515Z,25.85
2022-08-25T19:46:38.291Z,25.72
2022-08-25T19:49:14.590Z,25.65
2022-08-25T19:51:51.148Z,25.58
2022-08-25T19:54:29.339Z,25.43
2022-08-25T19:57:02.910Z,25.31
2022-08-25T19:59:43.066Z,25.21
2022-08-25T20:02:28.286Z,25.07
2022-08-25T20:05:03.127Z,24.78
2022-08-25T20:07:36.299Z,24.66
2022-08-25T20:10:14.958Z,24.61
2022-08-25T20:12:48.218Z,24.54
2022-08-25T20:15:21.040Z,24.48
2022-08-25T20:17:56.582Z,24.43
2022-08-25T20:20:32.370Z,24.35
2022-08-25T20:23:17.780Z,24.23
2022-08-25T20:25:53.157Z,24.10
2022-08-25T20:28:25.881Z,24.05
2022-08-25T20:31:00.608Z,23.96
2022-08-25T20:33:33.141Z,23.91
2022-08-25T20:36:05.659Z,23.89
2022-08-25T20:38:41.579Z,23.85
2022-08-25T20:41:17.699Z,23.76
2022-08-25T20:43:51.140Z,23.71
2022-08-25T20:49:12.900Z,23.57
2022-08-25T20:51:47.140Z,23.52
2022-08-25T20:54:25.439Z,23.50
2022-08-25T20:57:01.416Z,23.44
2022-08-25T20:59:36.679Z,23.38
2022-08-25T21:02:10.062Z,23.34
2022-08-25T21:04:50.071Z,23.28
2022-08-25T21:07:26.203Z,23.21
2022-08-25T21:10:00.942Z,23.12
2022-08-25T21:12:36.747Z,23.13
2022-08-25T21:15:11.406Z,23.13
2022-08-25T21:17:44.037Z,23.08
2022-08-25T21:20:28.157Z,23.01
2022-08-25T21:23:01.246Z,23.01
2022-08-25T21:25:53.112Z,22.96
2022-08-25T21:28:28.494Z,22.95
2022-08-25T21:31:00.793Z,22.90
2022-08-25T21:33:33.518Z,22.85
2022-08-25T21:36:07.114Z,22.80
2022-08-25T21:38:41.134Z,22.77
2022-08-25T21:41:17.281Z,22.75
2022-08-25T21:43:55.161Z,22.65
2022-08-25T21:46:30.760Z,22.72
2022-08-25T21:49:06.287Z,22.68
2022-08-25T21:51:43.533Z,22.68
2022-08-25T21:54:19.174Z,22.64
2022-08-25T21:56:59.996Z,22.63
2022-08-25T21:59:38.353Z,22.56
2022-08-25T22:02:13.328Z,22.57
2022-08-25T22:04:47.695Z,22.51
2022-08-25T22:07:20.935Z,22.53
2022-08-25T22:09:54.196Z,22.56
2022-08-25T22:12:26.697Z,22.59
2022-08-25T22:15:02.433Z,22.58
2022-08-25T22:17:34.896Z,22.56
2022-08-25T22:20:08.576Z,22.55
2022-08-25T22:22:40.964Z,22.60
2022-08-25T22:25:13.415Z,22.54
2022-08-25T22:27:45.275Z,22.67
2022-08-25T22:30:22.098Z,22.83
2022-08-25T22:32:54.036Z,22.94
2022-08-25T22:35:25.830Z,22.95
2022-08-25T22:41:05.815Z,23.04
2022-08-25T22:43:37.575Z,23.21
2022-08-25T22:46:13.514Z,23.27
2022-08-25T22:48:50.261Z,23.28
2022-08-25T22:51:26.405Z,23.39
2022-08-25T22:53:58.745Z,23.16
2022-08-25T22:56:34.237Z,23.27
2022-08-25T22:59:09.685Z,23.20
2022-08-25T23:01:47.425Z,23.39
2022-08-25T23:04:19.292Z,23.27
2022-08-25T23:06:51.256Z,23.23
2022-08-25T23:09:22.967Z,23.28
2022-08-25T23:11:56.902Z,23.35
2022-08-25T23:14:30.139Z,23.12
2022-08-25T23:17:09.089Z,23.05
2022-08-25T23:19:55.488Z,23.15
2022-08-25T23:22:24.998Z,23.13
2022-08-25T23:24:59.098Z,23.25
2022-08-25T23:27:31.157Z,23.20
2022-08-25T23:30:03.770Z,23.15
2022-08-25T23:32:38.930Z,23.01
2022-08-25T23:35:12.149Z,23.07
2022-08-25T23:37:44.428Z,22.95
2022-08-25T23:40:19.381Z,22.93
2022-08-25T23:42:51.860Z,23.05
2022-08-25T23:45:23.715Z,23.06
2022-08-25T23:48:00.698Z,23.05
2022-08-25T23:50:32.811Z,22.93
2022-08-25T23:53:05.415Z,22.92
2022-08-25T23:55:37.103Z,22.98
2022-08-25T23:58:23.821Z,22.93
